Terminal Aerodrome Forecast
Issued by NWS

Home | Current Version | Previous Version | Text Only | Print | Product List | Glossary On
Versions: 1 2 3 4 5 6 7 8 9 10 11 12 13 14 15 16 17
453
FTUS43 KDVN 240520
TAFBRL
TAF
KBRL 240520Z 2406/2506 19006KT P6SM BKN250
     FM241100 18006KT P6SM VCTS BKN050CB
      TEMPO 2411/2415 4SM -TSRA BKN035CB OVC050
     FM241800 19007KT P6SM SCT120 BKN250=

USA.gov is the U.S. government's official web portal to all federal, state and local government web resources and services.